aviador You're here:

KAFN Decoded Metar

JAFFREY in NH, USA
Report Time2017-09-23 19:52:00
UTC Time2017-09-23 20:09:52
Flight Rules vfr VFR
WindVRB at 05 kt
Visibility9999 m
Phenomena:N/A
Clouds:N/A
Expected CloudBase > 7,200 ft AGL from Temp-Dew spread
CeilingNone
Temp29°C (ISA +16)
Dew Point11°C (33% RH)
Heat Index28.1°C
AAT27.5°C
QNH1018 hPa
Density Alt2,877 ft
Elevation1,027 ft
Report Wrong Elevation
Raw Report
KAFN 231952Z AUTO VRB05KT 10SM CLR 29/11 A3005 RMK AO2 SLP174
T02940111=

Extra information for KAFN:More info

Metar Taf Metar & Taf Last 4 Metars F.Rules Stats Wind Profile Meteogram Temp Stats Airport Information Weather charts Add Link Nearby VenuesMetar ALERT Operation Metar Decoded Social comments

AIRNAV info for KAFN